sensor_id;sensor_type;location;lat;lon;timestamp;P1;durP1;ratioP1;P2;durP2;ratioP2
16512;SDS011;8369;48.030;11.598;2023-01-10T00:01:25;1.17;;;1.07;;
16512;SDS011;8369;48.030;11.598;2023-01-10T00:03:51;1.10;;;1.10;;
16512;SDS011;8369;48.030;11.598;2023-01-10T00:06:17;1.40;;;1.27;;
16512;SDS011;8369;48.030;11.598;2023-01-10T00:08:43;1.30;;;1.20;;
16512;SDS011;8369;48.030;11.598;2023-01-10T00:11:08;1.43;;;1.10;;
16512;SDS011;8369;48.030;11.598;2023-01-10T00:13:52;1.20;;;1.10;;
16512;SDS011;8369;48.030;11.598;2023-01-10T00:16:19;3.50;;;1.40;;
16512;SDS011;8369;48.030;11.598;2023-01-10T00:18:44;1.30;;;1.20;;
16512;SDS011;8369;48.030;11.598;2023-01-10T00:21:10;1.43;;;1.20;;
16512;SDS011;8369;48.030;11.598;2023-01-10T00:23:35;1.10;;;1.00;;
16512;SDS011;8369;48.030;11.598;2023-01-10T00:26:01;1.50;;;1.23;;
16512;SDS011;8369;48.030;11.598;2023-01-10T00:28:27;1.73;;;1.10;;
16512;SDS011;8369;48.030;11.598;2023-01-10T00:30:53;1.77;;;1.17;;
16512;SDS011;8369;48.030;11.598;2023-01-10T00:33:20;1.30;;;1.20;;
16512;SDS011;8369;48.030;11.598;2023-01-10T00:35:46;1.50;;;1.00;;
16512;SDS011;8369;48.030;11.598;2023-01-10T00:38:12;1.03;;;0.93;;
16512;SDS011;8369;48.030;11.598;2023-01-10T00:40:39;2.50;;;1.30;;
16512;SDS011;8369;48.030;11.598;2023-01-10T00:43:04;1.20;;;1.10;;
16512;SDS011;8369;48.030;11.598;2023-01-10T00:45:48;2.57;;;1.77;;
16512;SDS011;8369;48.030;11.598;2023-01-10T00:48:15;0.90;;;0.90;;
16512;SDS011;8369;48.030;11.598;2023-01-10T00:50:43;1.90;;;1.30;;
16512;SDS011;8369;48.030;11.598;2023-01-10T00:53:10;2.67;;;1.23;;
16512;SDS011;8369;48.030;11.598;2023-01-10T00:55:35;1.20;;;1.10;;
16512;SDS011;8369;48.030;11.598;2023-01-10T00:58:01;1.03;;;0.97;;
16512;SDS011;8369;48.030;11.598;2023-01-10T01:00:27;0.90;;;0.90;;
16512;SDS011;8369;48.030;11.598;2023-01-10T01:02:53;1.27;;;1.17;;
16512;SDS011;8369;48.030;11.598;2023-01-10T01:05:19;1.00;;;1.00;;
16512;SDS011;8369;48.030;11.598;2023-01-10T01:07:48;0.90;;;0.90;;
16512;SDS011;8369;48.030;11.598;2023-01-10T01:10:15;2.23;;;1.33;;
16512;SDS011;8369;48.030;11.598;2023-01-10T01:15:19;0.93;;;0.90;;
16512;SDS011;8369;48.030;11.598;2023-01-10T01:17:45;1.20;;;0.90;;
16512;SDS011;8369;48.030;11.598;2023-01-10T01:20:11;1.10;;;1.00;;
16512;SDS011;8369;48.030;11.598;2023-01-10T01:22:38;1.67;;;1.00;;
16512;SDS011;8369;48.030;11.598;2023-01-10T01:25:03;2.03;;;0.90;;
16512;SDS011;8369;48.030;11.598;2023-01-10T01:27:29;0.90;;;0.90;;
16512;SDS011;8369;48.030;11.598;2023-01-10T01:29:55;1.00;;;0.87;;
16512;SDS011;8369;48.030;11.598;2023-01-10T01:32:21;1.37;;;0.90;;
16512;SDS011;8369;48.030;11.598;2023-01-10T01:34:48;3.50;;;0.90;;
16512;SDS011;8369;48.030;11.598;2023-01-10T01:37:13;1.43;;;1.10;;
16512;SDS011;8369;48.030;11.598;2023-01-10T01:39:39;1.00;;;0.80;;
16512;SDS011;8369;48.030;11.598;2023-01-10T01:42:05;0.90;;;0.90;;
16512;SDS011;8369;48.030;11.598;2023-01-10T01:44:32;0.90;;;0.90;;
16512;SDS011;8369;48.030;11.598;2023-01-10T01:47:07;1.10;;;0.90;;
16512;SDS011;8369;48.030;11.598;2023-01-10T01:49:41;1.50;;;0.83;;
16512;SDS011;8369;48.030;11.598;2023-01-10T01:52:10;1.70;;;0.90;;
16512;SDS011;8369;48.030;11.598;2023-01-10T01:54:42;0.77;;;0.77;;
16512;SDS011;8369;48.030;11.598;2023-01-10T01:57:12;1.10;;;0.97;;
16512;SDS011;8369;48.030;11.598;2023-01-10T01:59:42;2.07;;;0.87;;
16512;SDS011;8369;48.030;11.598;2023-01-10T02:02:12;1.00;;;0.90;;
16512;SDS011;8369;48.030;11.598;2023-01-10T02:04:47;1.23;;;1.10;;
16512;SDS011;8369;48.030;11.598;2023-01-10T02:07:19;0.97;;;0.87;;
16512;SDS011;8369;48.030;11.598;2023-01-10T02:12:14;2.67;;;1.00;;
16512;SDS011;8369;48.030;11.598;2023-01-10T02:14:41;2.33;;;0.90;;
16512;SDS011;8369;48.030;11.598;2023-01-10T02:17:08;1.10;;;1.00;;
16512;SDS011;8369;48.030;11.598;2023-01-10T02:19:54;1.97;;;1.40;;
16512;SDS011;8369;48.030;11.598;2023-01-10T02:27:25;1.63;;;1.00;;
16512;SDS011;8369;48.030;11.598;2023-01-10T02:36:02;0.90;;;0.90;;
16512;SDS011;8369;48.030;11.598;2023-01-10T02:41:51;1.77;;;0.87;;
16512;SDS011;8369;48.030;11.598;2023-01-10T02:46:54;1.00;;;1.00;;
16512;SDS011;8369;48.030;11.598;2023-01-10T02:49:20;1.47;;;1.00;;
16512;SDS011;8369;48.030;11.598;2023-01-10T02:51:46;1.17;;;1.00;;
16512;SDS011;8369;48.030;11.598;2023-01-10T02:54:12;1.97;;;0.90;;
16512;SDS011;8369;48.030;11.598;2023-01-10T02:56:54;0.80;;;0.80;;
16512;SDS011;8369;48.030;11.598;2023-01-10T03:16:00;0.90;;;0.90;;
16512;SDS011;8369;48.030;11.598;2023-01-10T03:18:29;0.80;;;0.80;;
16512;SDS011;8369;48.030;11.598;2023-01-10T03:21:23;1.17;;;0.93;;
16512;SDS011;8369;48.030;11.598;2023-01-10T03:23:53;1.53;;;0.90;;
16512;SDS011;8369;48.030;11.598;2023-01-10T03:26:31;2.30;;;0.87;;
16512;SDS011;8369;48.030;11.598;2023-01-10T03:29:19;1.10;;;0.90;;
16512;SDS011;8369;48.030;11.598;2023-01-10T03:31:56;0.90;;;0.90;;
16512;SDS011;8369;48.030;11.598;2023-01-10T03:34:24;1.00;;;1.00;;
16512;SDS011;8369;48.030;11.598;2023-01-10T03:39:51;1.00;;;1.00;;
16512;SDS011;8369;48.030;11.598;2023-01-10T03:44:56;0.80;;;0.80;;
16512;SDS011;8369;48.030;11.598;2023-01-10T03:47:33;0.80;;;0.80;;
16512;SDS011;8369;48.030;11.598;2023-01-10T03:50:12;2.53;;;1.00;;
16512;SDS011;8369;48.030;11.598;2023-01-10T03:52:41;0.83;;;0.83;;
16512;SDS011;8369;48.030;11.598;2023-01-10T03:55:12;1.30;;;0.87;;
16512;SDS011;8369;48.030;11.598;2023-01-10T03:57:40;0.90;;;0.80;;
16512;SDS011;8369;48.030;11.598;2023-01-10T04:00:08;0.90;;;0.90;;
16512;SDS011;8369;48.030;11.598;2023-01-10T04:02:34;1.17;;;1.07;;
16512;SDS011;8369;48.030;11.598;2023-01-10T04:04:59;1.53;;;0.93;;
16512;SDS011;8369;48.030;11.598;2023-01-10T04:07:25;1.40;;;1.17;;
16512;SDS011;8369;48.030;11.598;2023-01-10T04:09:51;1.10;;;1.00;;
16512;SDS011;8369;48.030;11.598;2023-01-10T04:12:19;1.40;;;1.00;;
16512;SDS011;8369;48.030;11.598;2023-01-10T04:14:45;1.47;;;1.30;;
16512;SDS011;8369;48.030;11.598;2023-01-10T04:17:11;1.00;;;1.00;;
16512;SDS011;8369;48.030;11.598;2023-01-10T04:19:41;1.37;;;1.27;;
16512;SDS011;8369;48.030;11.598;2023-01-10T04:22:08;1.70;;;1.20;;
16512;SDS011;8369;48.030;11.598;2023-01-10T04:24:34;1.63;;;1.10;;
16512;SDS011;8369;48.030;11.598;2023-01-10T04:27:00;1.00;;;1.00;;
16512;SDS011;8369;48.030;11.598;2023-01-10T04:29:25;2.50;;;1.13;;
16512;SDS011;8369;48.030;11.598;2023-01-10T04:31:51;0.90;;;0.90;;
16512;SDS011;8369;48.030;11.598;2023-01-10T04:34:17;2.27;;;1.17;;
16512;SDS011;8369;48.030;11.598;2023-01-10T04:36:44;1.40;;;1.30;;
16512;SDS011;8369;48.030;11.598;2023-01-10T04:39:10;1.23;;;1.17;;
16512;SDS011;8369;48.030;11.598;2023-01-10T04:41:36;1.33;;;1.20;;
16512;SDS011;8369;48.030;11.598;2023-01-10T04:44:02;2.43;;;1.40;;
16512;SDS011;8369;48.030;11.598;2023-01-10T04:46:28;1.67;;;1.20;;
16512;SDS011;8369;48.030;11.598;2023-01-10T04:48:54;1.33;;;1.20;;
16512;SDS011;8369;48.030;11.598;2023-01-10T04:51:20;1.23;;;1.13;;
16512;SDS011;8369;48.030;11.598;2023-01-10T04:53:46;1.47;;;1.37;;
16512;SDS011;8369;48.030;11.598;2023-01-10T04:56:15;2.10;;;1.57;;
16512;SDS011;8369;48.030;11.598;2023-01-10T04:58:46;2.00;;;1.53;;
16512;SDS011;8369;48.030;11.598;2023-01-10T05:01:14;1.30;;;1.20;;
16512;SDS011;8369;48.030;11.598;2023-01-10T05:03:48;2.67;;;1.70;;
16512;SDS011;8369;48.030;11.598;2023-01-10T05:06:15;2.20;;;1.60;;
16512;SDS011;8369;48.030;11.598;2023-01-10T05:08:41;1.67;;;1.43;;
16512;SDS011;8369;48.030;11.598;2023-01-10T05:11:07;1.97;;;1.60;;
16512;SDS011;8369;48.030;11.598;2023-01-10T05:13:32;1.63;;;1.53;;
16512;SDS011;8369;48.030;11.598;2023-01-10T05:15:58;2.10;;;1.60;;
16512;SDS011;8369;48.030;11.598;2023-01-10T05:18:25;2.13;;;1.40;;
16512;SDS011;8369;48.030;11.598;2023-01-10T05:20:51;1.57;;;1.40;;
16512;SDS011;8369;48.030;11.598;2023-01-10T05:23:17;1.50;;;1.37;;
16512;SDS011;8369;48.030;11.598;2023-01-10T05:25:43;1.30;;;1.20;;
16512;SDS011;8369;48.030;11.598;2023-01-10T05:28:09;1.60;;;1.40;;
16512;SDS011;8369;48.030;11.598;2023-01-10T05:30:35;1.37;;;1.27;;
16512;SDS011;8369;48.030;11.598;2023-01-10T05:33:04;1.67;;;1.40;;
16512;SDS011;8369;48.030;11.598;2023-01-10T05:35:30;1.40;;;1.30;;
16512;SDS011;8369;48.030;11.598;2023-01-10T05:37:55;2.10;;;1.40;;
16512;SDS011;8369;48.030;11.598;2023-01-10T05:40:21;1.27;;;1.17;;
16512;SDS011;8369;48.030;11.598;2023-01-10T05:42:46;1.53;;;1.40;;
16512;SDS011;8369;48.030;11.598;2023-01-10T05:45:12;2.43;;;1.60;;
16512;SDS011;8369;48.030;11.598;2023-01-10T05:47:38;1.30;;;1.20;;
16512;SDS011;8369;48.030;11.598;2023-01-10T05:50:03;1.20;;;1.10;;
16512;SDS011;8369;48.030;11.598;2023-01-10T05:52:29;1.30;;;1.20;;
16512;SDS011;8369;48.030;11.598;2023-01-10T05:54:55;1.30;;;1.10;;
16512;SDS011;8369;48.030;11.598;2023-01-10T05:57:21;1.40;;;1.20;;
16512;SDS011;8369;48.030;11.598;2023-01-10T05:59:48;1.33;;;1.23;;
16512;SDS011;8369;48.030;11.598;2023-01-10T06:02:14;1.00;;;1.00;;
16512;SDS011;8369;48.030;11.598;2023-01-10T06:04:40;1.30;;;1.20;;
16512;SDS011;8369;48.030;11.598;2023-01-10T06:07:05;1.10;;;1.00;;
16512;SDS011;8369;48.030;11.598;2023-01-10T06:09:31;1.03;;;1.00;;
16512;SDS011;8369;48.030;11.598;2023-01-10T06:11:57;1.10;;;1.07;;
16512;SDS011;8369;48.030;11.598;2023-01-10T06:14:22;1.63;;;1.20;;
16512;SDS011;8369;48.030;11.598;2023-01-10T06:16:48;1.10;;;1.00;;
16512;SDS011;8369;48.030;11.598;2023-01-10T06:19:13;1.23;;;1.13;;
16512;SDS011;8369;48.030;11.598;2023-01-10T06:21:39;1.37;;;1.20;;
16512;SDS011;8369;48.030;11.598;2023-01-10T06:24:05;1.30;;;1.20;;
16512;SDS011;8369;48.030;11.598;2023-01-10T06:26:31;1.30;;;1.20;;
16512;SDS011;8369;48.030;11.598;2023-01-10T06:28:56;2.00;;;1.33;;
16512;SDS011;8369;48.030;11.598;2023-01-10T06:31:23;1.20;;;1.10;;
16512;SDS011;8369;48.030;11.598;2023-01-10T06:33:49;1.50;;;1.30;;
16512;SDS011;8369;48.030;11.598;2023-01-10T06:36:15;1.57;;;1.27;;
16512;SDS011;8369;48.030;11.598;2023-01-10T06:38:41;1.20;;;1.10;;
16512;SDS011;8369;48.030;11.598;2023-01-10T06:41:07;1.23;;;1.10;;
16512;SDS011;8369;48.030;11.598;2023-01-10T06:43:40;2.40;;;1.20;;
16512;SDS011;8369;48.030;11.598;2023-01-10T06:46:10;1.57;;;1.10;;
16512;SDS011;8369;48.030;11.598;2023-01-10T06:48:36;1.73;;;1.20;;
16512;SDS011;8369;48.030;11.598;2023-01-10T06:51:03;1.17;;;1.10;;
16512;SDS011;8369;48.030;11.598;2023-01-10T06:53:29;1.20;;;1.10;;
16512;SDS011;8369;48.030;11.598;2023-01-10T06:55:55;2.73;;;1.70;;
16512;SDS011;8369;48.030;11.598;2023-01-10T06:58:21;1.97;;;1.20;;
16512;SDS011;8369;48.030;11.598;2023-01-10T07:00:47;1.60;;;1.50;;
16512;SDS011;8369;48.030;11.598;2023-01-10T07:03:13;1.50;;;1.23;;
16512;SDS011;8369;48.030;11.598;2023-01-10T07:05:39;1.53;;;1.40;;
16512;SDS011;8369;48.030;11.598;2023-01-10T07:08:04;1.47;;;1.37;;
16512;SDS011;8369;48.030;11.598;2023-01-10T07:10:30;1.40;;;1.30;;
16512;SDS011;8369;48.030;11.598;2023-01-10T07:12:56;1.43;;;1.27;;
16512;SDS011;8369;48.030;11.598;2023-01-10T07:15:22;1.60;;;1.30;;
16512;SDS011;8369;48.030;11.598;2023-01-10T07:17:48;1.13;;;1.13;;
16512;SDS011;8369;48.030;11.598;2023-01-10T07:20:17;1.30;;;1.20;;
16512;SDS011;8369;48.030;11.598;2023-01-10T07:22:43;1.47;;;1.10;;
16512;SDS011;8369;48.030;11.598;2023-01-10T07:25:09;2.23;;;1.40;;
16512;SDS011;8369;48.030;11.598;2023-01-10T07:27:35;1.47;;;1.37;;
16512;SDS011;8369;48.030;11.598;2023-01-10T07:30:00;1.10;;;1.10;;
16512;SDS011;8369;48.030;11.598;2023-01-10T07:32:26;1.23;;;1.17;;
16512;SDS011;8369;48.030;11.598;2023-01-10T07:34:52;3.13;;;1.37;;
16512;SDS011;8369;48.030;11.598;2023-01-10T07:37:17;2.50;;;1.20;;
16512;SDS011;8369;48.030;11.598;2023-01-10T07:39:43;2.53;;;1.30;;
16512;SDS011;8369;48.030;11.598;2023-01-10T07:42:12;1.40;;;1.30;;
16512;SDS011;8369;48.030;11.598;2023-01-10T07:44:37;1.30;;;1.20;;
16512;SDS011;8369;48.030;11.598;2023-01-10T07:47:03;2.53;;;1.33;;
16512;SDS011;8369;48.030;11.598;2023-01-10T07:49:31;1.73;;;1.30;;
16512;SDS011;8369;48.030;11.598;2023-01-10T07:51:57;2.40;;;1.53;;
16512;SDS011;8369;48.030;11.598;2023-01-10T07:54:22;1.70;;;1.60;;
16512;SDS011;8369;48.030;11.598;2023-01-10T07:56:48;1.57;;;1.30;;
16512;SDS011;8369;48.030;11.598;2023-01-10T07:59:14;2.47;;;1.70;;
16512;SDS011;8369;48.030;11.598;2023-01-10T08:01:42;2.03;;;1.40;;
16512;SDS011;8369;48.030;11.598;2023-01-10T08:04:08;3.10;;;1.30;;
16512;SDS011;8369;48.030;11.598;2023-01-10T08:06:33;1.40;;;1.30;;
16512;SDS011;8369;48.030;11.598;2023-01-10T08:08:59;2.47;;;1.83;;
16512;SDS011;8369;48.030;11.598;2023-01-10T08:11:27;2.77;;;1.60;;
16512;SDS011;8369;48.030;11.598;2023-01-10T08:13:53;1.50;;;1.40;;
16512;SDS011;8369;48.030;11.598;2023-01-10T08:16:18;1.53;;;1.43;;
16512;SDS011;8369;48.030;11.598;2023-01-10T08:18:44;1.63;;;1.37;;
16512;SDS011;8369;48.030;11.598;2023-01-10T08:21:10;1.67;;;1.57;;
16512;SDS011;8369;48.030;11.598;2023-01-10T08:23:36;1.50;;;1.40;;
16512;SDS011;8369;48.030;11.598;2023-01-10T08:26:02;3.63;;;1.77;;
16512;SDS011;8369;48.030;11.598;2023-01-10T08:28:28;2.13;;;1.40;;
16512;SDS011;8369;48.030;11.598;2023-01-10T08:30:53;4.50;;;1.60;;
16512;SDS011;8369;48.030;11.598;2023-01-10T08:33:23;2.77;;;1.53;;
16512;SDS011;8369;48.030;11.598;2023-01-10T08:35:49;2.93;;;1.50;;
16512;SDS011;8369;48.030;11.598;2023-01-10T08:38:15;2.47;;;1.67;;
16512;SDS011;8369;48.030;11.598;2023-01-10T08:40:41;1.47;;;1.37;;
16512;SDS011;8369;48.030;11.598;2023-01-10T08:43:08;1.77;;;1.37;;
16512;SDS011;8369;48.030;11.598;2023-01-10T08:45:36;1.83;;;1.40;;
16512;SDS011;8369;48.030;11.598;2023-01-10T08:48:03;1.67;;;1.23;;
16512;SDS011;8369;48.030;11.598;2023-01-10T08:50:29;1.47;;;1.37;;
16512;SDS011;8369;48.030;11.598;2023-01-10T08:52:56;1.43;;;1.30;;
16512;SDS011;8369;48.030;11.598;2023-01-10T08:55:23;4.50;;;1.53;;
16512;SDS011;8369;48.030;11.598;2023-01-10T08:57:51;1.90;;;1.10;;
16512;SDS011;8369;48.030;11.598;2023-01-10T09:00:17;3.20;;;1.67;;
16512;SDS011;8369;48.030;11.598;2023-01-10T09:02:43;2.60;;;1.40;;
16512;SDS011;8369;48.030;11.598;2023-01-10T09:05:09;2.03;;;1.13;;
16512;SDS011;8369;48.030;11.598;2023-01-10T09:07:35;1.90;;;1.50;;
16512;SDS011;8369;48.030;11.598;2023-01-10T09:10:00;2.57;;;1.47;;
16512;SDS011;8369;48.030;11.598;2023-01-10T09:12:26;2.10;;;1.50;;
16512;SDS011;8369;48.030;11.598;2023-01-10T09:15:11;2.80;;;1.67;;
16512;SDS011;8369;48.030;11.598;2023-01-10T09:17:36;2.63;;;1.70;;
16512;SDS011;8369;48.030;11.598;2023-01-10T09:20:02;3.90;;;1.70;;
16512;SDS011;8369;48.030;11.598;2023-01-10T09:22:30;1.43;;;1.33;;
16512;SDS011;8369;48.030;11.598;2023-01-10T09:24:56;5.17;;;2.50;;
16512;SDS011;8369;48.030;11.598;2023-01-10T09:27:22;2.93;;;1.80;;
16512;SDS011;8369;48.030;11.598;2023-01-10T09:29:47;4.47;;;1.70;;
16512;SDS011;8369;48.030;11.598;2023-01-10T09:32:13;3.50;;;1.97;;
16512;SDS011;8369;48.030;11.598;2023-01-10T09:34:39;8.80;;;3.00;;
16512;SDS011;8369;48.030;11.598;2023-01-10T09:37:04;2.77;;;2.10;;
16512;SDS011;8369;48.030;11.598;2023-01-10T09:39:30;2.50;;;1.80;;
16512;SDS011;8369;48.030;11.598;2023-01-10T09:44:53;3.80;;;2.20;;
16512;SDS011;8369;48.030;11.598;2023-01-10T09:50:09;6.10;;;2.27;;
16512;SDS011;8369;48.030;11.598;2023-01-10T09:52:44;3.63;;;2.00;;
16512;SDS011;8369;48.030;11.598;2023-01-10T09:55:22;3.00;;;1.53;;
16512;SDS011;8369;48.030;11.598;2023-01-10T09:58:00;3.43;;;2.27;;
16512;SDS011;8369;48.030;11.598;2023-01-10T10:03:29;2.13;;;1.60;;
16512;SDS011;8369;48.030;11.598;2023-01-10T10:05:58;3.13;;;1.50;;
16512;SDS011;8369;48.030;11.598;2023-01-10T10:08:24;2.33;;;1.40;;
16512;SDS011;8369;48.030;11.598;2023-01-10T10:24:29;3.87;;;1.50;;
16512;SDS011;8369;48.030;11.598;2023-01-10T10:35:32;3.07;;;1.57;;
16512;SDS011;8369;48.030;11.598;2023-01-10T10:38:20;5.07;;;1.40;;
16512;SDS011;8369;48.030;11.598;2023-01-10T10:40:54;1.23;;;1.07;;
16512;SDS011;8369;48.030;11.598;2023-01-10T10:43:32;1.10;;;0.93;;
16512;SDS011;8369;48.030;11.598;2023-01-10T10:46:02;1.17;;;0.93;;
16512;SDS011;8369;48.030;11.598;2023-01-10T10:51:26;7.30;;;1.40;;
16512;SDS011;8369;48.030;11.598;2023-01-10T10:54:03;2.07;;;1.43;;
16512;SDS011;8369;48.030;11.598;2023-01-10T10:56:30;4.20;;;1.07;;
16512;SDS011;8369;48.030;11.598;2023-01-10T10:58:57;1.10;;;1.00;;
16512;SDS011;8369;48.030;11.598;2023-01-10T11:01:23;3.07;;;1.00;;
16512;SDS011;8369;48.030;11.598;2023-01-10T11:04:05;1.20;;;1.03;;
16512;SDS011;8369;48.030;11.598;2023-01-10T11:06:34;4.33;;;1.17;;
16512;SDS011;8369;48.030;11.598;2023-01-10T11:09:03;3.80;;;1.03;;
16512;SDS011;8369;48.030;11.598;2023-01-10T11:11:31;1.50;;;1.10;;
16512;SDS011;8369;48.030;11.598;2023-01-10T11:14:03;1.87;;;0.80;;
16512;SDS011;8369;48.030;11.598;2023-01-10T11:16:31;3.73;;;1.17;;
16512;SDS011;8369;48.030;11.598;2023-01-10T11:24:32;3.13;;;1.13;;
16512;SDS011;8369;48.030;11.598;2023-01-10T11:27:03;1.50;;;1.17;;
16512;SDS011;8369;48.030;11.598;2023-01-10T11:29:42;1.97;;;1.20;;
16512;SDS011;8369;48.030;11.598;2023-01-10T11:32:12;5.63;;;1.40;;
16512;SDS011;8369;48.030;11.598;2023-01-10T11:34:50;2.00;;;1.40;;
16512;SDS011;8369;48.030;11.598;2023-01-10T11:37:24;3.70;;;1.40;;
16512;SDS011;8369;48.030;11.598;2023-01-10T11:42:44;5.13;;;1.37;;
16512;SDS011;8369;48.030;11.598;2023-01-10T11:45:13;2.27;;;1.27;;
16512;SDS011;8369;48.030;11.598;2023-01-10T11:47:45;5.27;;;1.30;;
16512;SDS011;8369;48.030;11.598;2023-01-10T11:53:39;1.50;;;1.23;;
16512;SDS011;8369;48.030;11.598;2023-01-10T11:56:10;1.30;;;1.20;;
16512;SDS011;8369;48.030;11.598;2023-01-10T11:58:38;4.07;;;1.27;;
16512;SDS011;8369;48.030;11.598;2023-01-10T12:01:05;1.53;;;1.20;;
16512;SDS011;8369;48.030;11.598;2023-01-10T12:03:50;4.47;;;1.43;;
16512;SDS011;8369;48.030;11.598;2023-01-10T12:06:16;5.43;;;1.43;;
16512;SDS011;8369;48.030;11.598;2023-01-10T12:08:42;3.00;;;1.30;;
16512;SDS011;8369;48.030;11.598;2023-01-10T12:13:48;3.93;;;1.40;;
16512;SDS011;8369;48.030;11.598;2023-01-10T12:16:16;5.00;;;1.83;;
16512;SDS011;8369;48.030;11.598;2023-01-10T12:18:44;3.63;;;1.70;;
16512;SDS011;8369;48.030;11.598;2023-01-10T12:21:10;2.97;;;1.40;;
16512;SDS011;8369;48.030;11.598;2023-01-10T12:23:42;1.73;;;1.40;;
16512;SDS011;8369;48.030;11.598;2023-01-10T12:26:10;1.67;;;1.33;;
16512;SDS011;8369;48.030;11.598;2023-01-10T12:28:41;4.27;;;1.63;;
16512;SDS011;8369;48.030;11.598;2023-01-10T12:31:19;5.50;;;1.60;;
16512;SDS011;8369;48.030;11.598;2023-01-10T12:33:49;2.20;;;1.47;;
16512;SDS011;8369;48.030;11.598;2023-01-10T12:42:09;3.23;;;1.20;;
16512;SDS011;8369;48.030;11.598;2023-01-10T12:50:32;2.03;;;1.10;;
16512;SDS011;8369;48.030;11.598;2023-01-10T12:53:22;1.20;;;0.87;;
16512;SDS011;8369;48.030;11.598;2023-01-10T12:55:50;2.07;;;1.10;;
16512;SDS011;8369;48.030;11.598;2023-01-10T12:58:33;1.30;;;0.80;;
16512;SDS011;8369;48.030;11.598;2023-01-10T13:01:18;1.77;;;1.13;;
16512;SDS011;8369;48.030;11.598;2023-01-10T13:04:02;8.10;;;1.60;;
16512;SDS011;8369;48.030;11.598;2023-01-10T13:06:31;1.07;;;0.90;;
16512;SDS011;8369;48.030;11.598;2023-01-10T13:09:00;2.00;;;1.00;;
16512;SDS011;8369;48.030;11.598;2023-01-10T13:11:32;1.57;;;1.00;;
16512;SDS011;8369;48.030;11.598;2023-01-10T13:14:08;1.70;;;1.20;;
16512;SDS011;8369;48.030;11.598;2023-01-10T13:16:41;3.27;;;1.27;;
16512;SDS011;8369;48.030;11.598;2023-01-10T13:19:28;3.30;;;1.50;;
16512;SDS011;8369;48.030;11.598;2023-01-10T13:24:56;1.17;;;0.97;;
16512;SDS011;8369;48.030;11.598;2023-01-10T13:27:30;2.30;;;1.07;;
16512;SDS011;8369;48.030;11.598;2023-01-10T13:29:57;2.17;;;1.10;;
16512;SDS011;8369;48.030;11.598;2023-01-10T13:32:26;2.47;;;1.10;;
16512;SDS011;8369;48.030;11.598;2023-01-10T13:34:54;1.23;;;1.00;;
16512;SDS011;8369;48.030;11.598;2023-01-10T13:37:36;5.40;;;1.17;;
16512;SDS011;8369;48.030;11.598;2023-01-10T13:40:04;1.50;;;1.20;;
16512;SDS011;8369;48.030;11.598;2023-01-10T13:42:33;7.83;;;1.60;;
16512;SDS011;8369;48.030;11.598;2023-01-10T13:45:28;3.03;;;1.20;;
16512;SDS011;8369;48.030;11.598;2023-01-10T13:47:56;4.47;;;1.23;;
16512;SDS011;8369;48.030;11.598;2023-01-10T14:04:24;2.27;;;1.30;;
16512;SDS011;8369;48.030;11.598;2023-01-10T14:06:53;2.87;;;1.20;;
16512;SDS011;8369;48.030;11.598;2023-01-10T14:09:28;3.70;;;1.30;;
16512;SDS011;8369;48.030;11.598;2023-01-10T14:12:04;3.77;;;1.40;;
16512;SDS011;8369;48.030;11.598;2023-01-10T14:14:40;1.73;;;1.20;;
16512;SDS011;8369;48.030;11.598;2023-01-10T14:17:11;3.07;;;1.20;;
16512;SDS011;8369;48.030;11.598;2023-01-10T14:19:46;6.20;;;1.53;;
16512;SDS011;8369;48.030;11.598;2023-01-10T14:22:23;1.87;;;1.20;;
16512;SDS011;8369;48.030;11.598;2023-01-10T14:24:53;1.17;;;1.00;;
16512;SDS011;8369;48.030;11.598;2023-01-10T14:27:19;2.93;;;1.60;;
16512;SDS011;8369;48.030;11.598;2023-01-10T14:29:48;1.93;;;1.20;;
16512;SDS011;8369;48.030;11.598;2023-01-10T14:32:37;2.70;;;1.50;;
16512;SDS011;8369;48.030;11.598;2023-01-10T14:35:09;6.57;;;1.97;;
16512;SDS011;8369;48.030;11.598;2023-01-10T14:38:05;3.43;;;1.67;;
16512;SDS011;8369;48.030;11.598;2023-01-10T14:40:41;6.07;;;1.60;;
16512;SDS011;8369;48.030;11.598;2023-01-10T14:43:15;1.70;;;1.13;;
16512;SDS011;8369;48.030;11.598;2023-01-10T14:48:39;1.73;;;1.37;;
16512;SDS011;8369;48.030;11.598;2023-01-10T14:53:44;4.27;;;1.60;;
16512;SDS011;8369;48.030;11.598;2023-01-10T14:56:19;2.67;;;1.40;;
16512;SDS011;8369;48.030;11.598;2023-01-10T14:58:49;8.50;;;1.40;;
16512;SDS011;8369;48.030;11.598;2023-01-10T15:01:20;3.63;;;1.50;;
16512;SDS011;8369;48.030;11.598;2023-01-10T15:03:48;4.80;;;1.63;;
16512;SDS011;8369;48.030;11.598;2023-01-10T15:06:14;3.40;;;1.67;;
16512;SDS011;8369;48.030;11.598;2023-01-10T15:08:39;5.27;;;1.40;;
16512;SDS011;8369;48.030;11.598;2023-01-10T15:11:06;1.77;;;1.37;;
16512;SDS011;8369;48.030;11.598;2023-01-10T15:13:49;3.87;;;1.30;;
16512;SDS011;8369;48.030;11.598;2023-01-10T15:16:18;6.40;;;1.37;;
16512;SDS011;8369;48.030;11.598;2023-01-10T15:18:47;1.80;;;1.40;;
16512;SDS011;8369;48.030;11.598;2023-01-10T15:21:14;2.63;;;1.50;;
16512;SDS011;8369;48.030;11.598;2023-01-10T15:23:45;0.90;;;0.90;;
16512;SDS011;8369;48.030;11.598;2023-01-10T15:26:25;2.27;;;1.27;;
16512;SDS011;8369;48.030;11.598;2023-01-10T15:29:10;2.07;;;1.47;;
16512;SDS011;8369;48.030;11.598;2023-01-10T15:31:39;2.63;;;1.10;;
16512;SDS011;8369;48.030;11.598;2023-01-10T15:34:06;3.57;;;1.13;;
16512;SDS011;8369;48.030;11.598;2023-01-10T15:36:33;1.03;;;0.93;;
16512;SDS011;8369;48.030;11.598;2023-01-10T15:38:59;1.70;;;1.20;;
16512;SDS011;8369;48.030;11.598;2023-01-10T15:41:24;1.40;;;1.10;;
16512;SDS011;8369;48.030;11.598;2023-01-10T15:43:50;4.23;;;1.63;;
16512;SDS011;8369;48.030;11.598;2023-01-10T15:46:21;2.13;;;1.50;;
16512;SDS011;8369;48.030;11.598;2023-01-10T15:48:55;2.33;;;1.40;;
16512;SDS011;8369;48.030;11.598;2023-01-10T15:51:26;5.40;;;1.90;;
16512;SDS011;8369;48.030;11.598;2023-01-10T15:56:29;2.80;;;1.67;;
16512;SDS011;8369;48.030;11.598;2023-01-10T15:59:01;4.77;;;1.60;;
16512;SDS011;8369;48.030;11.598;2023-01-10T16:01:29;2.70;;;1.87;;
16512;SDS011;8369;48.030;11.598;2023-01-10T16:03:57;3.10;;;1.63;;
16512;SDS011;8369;48.030;11.598;2023-01-10T16:06:26;2.90;;;1.30;;
16512;SDS011;8369;48.030;11.598;2023-01-10T16:08:58;3.17;;;1.50;;
16512;SDS011;8369;48.030;11.598;2023-01-10T16:12:00;1.77;;;1.37;;
16512;SDS011;8369;48.030;11.598;2023-01-10T16:14:37;3.10;;;1.80;;
16512;SDS011;8369;48.030;11.598;2023-01-10T16:17:03;4.63;;;1.53;;
16512;SDS011;8369;48.030;11.598;2023-01-10T16:19:29;3.17;;;1.60;;
16512;SDS011;8369;48.030;11.598;2023-01-10T16:21:56;6.90;;;2.00;;
16512;SDS011;8369;48.030;11.598;2023-01-10T16:24:24;3.83;;;2.20;;
16512;SDS011;8369;48.030;11.598;2023-01-10T16:26:52;4.27;;;2.40;;
16512;SDS011;8369;48.030;11.598;2023-01-10T16:29:19;4.57;;;2.80;;
16512;SDS011;8369;48.030;11.598;2023-01-10T16:31:46;12.93;;;3.70;;
16512;SDS011;8369;48.030;11.598;2023-01-10T16:34:12;7.70;;;4.73;;
16512;SDS011;8369;48.030;11.598;2023-01-10T16:36:38;4.33;;;2.87;;
16512;SDS011;8369;48.030;11.598;2023-01-10T16:39:06;5.63;;;2.57;;
16512;SDS011;8369;48.030;11.598;2023-01-10T16:41:38;6.90;;;2.27;;
16512;SDS011;8369;48.030;11.598;2023-01-10T16:44:22;7.10;;;2.40;;
16512;SDS011;8369;48.030;11.598;2023-01-10T16:46:48;6.07;;;2.40;;
16512;SDS011;8369;48.030;11.598;2023-01-10T16:49:17;3.83;;;2.10;;
16512;SDS011;8369;48.030;11.598;2023-01-10T16:51:42;2.47;;;2.00;;
16512;SDS011;8369;48.030;11.598;2023-01-10T16:54:11;2.13;;;1.87;;
16512;SDS011;8369;48.030;11.598;2023-01-10T16:56:41;3.33;;;2.20;;
16512;SDS011;8369;48.030;11.598;2023-01-10T16:59:09;4.70;;;2.30;;
16512;SDS011;8369;48.030;11.598;2023-01-10T17:01:41;9.93;;;4.37;;
16512;SDS011;8369;48.030;11.598;2023-01-10T17:04:11;8.40;;;4.60;;
16512;SDS011;8369;48.030;11.598;2023-01-10T17:06:44;8.50;;;4.60;;
16512;SDS011;8369;48.030;11.598;2023-01-10T17:09:30;11.07;;;5.57;;